createdAt,value
2023-06-03T00:02:00.997Z,2.95
2023-06-03T00:04:30.686Z,3.10
2023-06-03T00:06:59.478Z,3.00
2023-06-03T00:09:28.112Z,2.83
2023-06-03T00:11:57.978Z,2.72
2023-06-03T00:16:54.208Z,2.30
2023-06-03T00:19:22.788Z,2.63
2023-06-03T00:21:51.527Z,2.55
2023-06-03T00:24:23.858Z,2.60
2023-06-03T00:26:52.074Z,2.53
2023-06-03T00:29:22.124Z,2.58
2023-06-03T00:31:51.080Z,2.58
2023-06-03T00:34:19.200Z,2.47
2023-06-03T00:36:48.034Z,2.55
2023-06-03T00:39:16.683Z,2.78
2023-06-03T00:41:44.954Z,2.38
2023-06-03T00:44:12.993Z,2.55
2023-06-03T00:46:44.559Z,2.25
2023-06-03T00:49:12.815Z,2.00
2023-06-03T00:51:40.810Z,2.13
2023-06-03T00:54:09.352Z,1.90
2023-06-03T00:56:46.894Z,1.90
2023-06-03T00:59:19.698Z,2.00
2023-06-03T01:01:49.215Z,1.98
2023-06-03T01:04:19.718Z,2.03
2023-06-03T01:06:58.111Z,1.80
2023-06-03T01:09:35.103Z,2.05
2023-06-03T01:12:12.267Z,1.80
2023-06-03T01:14:47.832Z,1.92
2023-06-03T01:17:22.172Z,2.00
2023-06-03T01:19:52.910Z,1.27
2023-06-03T01:22:25.547Z,1.60
2023-06-03T01:25:06.775Z,1.73
2023-06-03T01:27:37.778Z,1.60
2023-06-03T01:30:09.301Z,1.73
2023-06-03T01:32:39.630Z,1.40
2023-06-03T01:35:11.183Z,1.55
2023-06-03T01:37:39.860Z,1.70
2023-06-03T01:40:10.947Z,1.50
2023-06-03T01:42:40.584Z,1.50
2023-06-03T01:45:09.635Z,1.80
2023-06-03T01:47:38.464Z,1.50
2023-06-03T01:50:08.093Z,1.40
2023-06-03T01:52:36.221Z,1.42
2023-06-03T01:55:05.373Z,1.55
2023-06-03T01:57:37.077Z,1.42
2023-06-03T02:00:07.608Z,1.70
2023-06-03T02:02:42.349Z,1.48
2023-06-03T02:07:39.630Z,1.60
2023-06-03T02:10:10.593Z,1.60
2023-06-03T02:12:40.047Z,1.60
2023-06-03T02:15:15.492Z,1.60
2023-06-03T02:17:45.108Z,1.52
2023-06-03T02:20:13.879Z,1.70
2023-06-03T02:22:42.433Z,1.60
2023-06-03T02:25:10.869Z,1.70
2023-06-03T02:27:40.185Z,1.50
2023-06-03T02:30:14.104Z,1.33
2023-06-03T02:32:42.166Z,1.40
2023-06-03T02:35:10.669Z,1.30
2023-06-03T02:37:39.863Z,1.60
2023-06-03T02:40:10.417Z,1.80
2023-06-03T02:42:41.507Z,1.17
2023-06-03T02:45:11.633Z,1.20
2023-06-03T02:47:40.226Z,1.65
2023-06-03T02:50:10.961Z,1.37
2023-06-03T02:52:39.711Z,1.52
2023-06-03T02:55:09.798Z,1.52
2023-06-03T02:57:42.024Z,1.27
2023-06-03T03:00:12.390Z,1.10
2023-06-03T03:02:41.335Z,2.13
2023-06-03T03:05:10.260Z,1.27
2023-06-03T03:07:38.880Z,1.30
2023-06-03T03:12:38.353Z,1.40
2023-06-03T03:15:11.414Z,1.10
2023-06-03T03:17:40.477Z,1.67
2023-06-03T03:20:09.642Z,1.15
2023-06-03T03:22:43.009Z,2.10
2023-06-03T03:25:12.300Z,1.55
2023-06-03T03:27:43.457Z,1.38
2023-06-03T03:30:13.943Z,1.30
2023-06-03T03:32:43.773Z,1.10
2023-06-03T03:35:17.090Z,1.33
2023-06-03T03:37:49.343Z,1.20
2023-06-03T03:40:20.942Z,1.15
2023-06-03T03:42:52.664Z,1.00
2023-06-03T03:45:27.943Z,1.05
2023-06-03T03:48:02.919Z,0.98
2023-06-03T03:50:44.743Z,0.90
2023-06-03T03:53:17.500Z,0.85
2023-06-03T03:55:47.752Z,0.88
2023-06-03T03:58:29.828Z,1.10
2023-06-03T04:01:10.971Z,0.93
2023-06-03T04:03:41.437Z,0.98
2023-06-03T04:06:11.710Z,0.80
2023-06-03T04:08:44.616Z,0.93
2023-06-03T04:11:20.984Z,0.80
2023-06-03T04:13:50.758Z,0.90
2023-06-03T04:16:58.308Z,1.17
2023-06-03T04:19:38.160Z,1.33
2023-06-03T04:22:23.147Z,1.75
2023-06-03T04:24:58.206Z,1.00
2023-06-03T04:27:33.308Z,1.10
2023-06-03T04:30:05.432Z,0.98
2023-06-03T04:32:36.447Z,1.33
2023-06-03T04:35:05.036Z,1.77
2023-06-03T04:37:38.039Z,3.65
2023-06-03T04:40:11.009Z,1.40
2023-06-03T04:42:42.001Z,1.42
2023-06-03T04:45:11.782Z,1.60
2023-06-03T04:47:43.490Z,1.83
2023-06-03T04:50:18.304Z,1.40
2023-06-03T04:52:48.612Z,1.20
2023-06-03T04:57:47.185Z,1.45
2023-06-03T05:00:20.830Z,1.10
2023-06-03T05:02:57.922Z,0.70
2023-06-03T05:05:31.025Z,0.80
2023-06-03T05:07:59.167Z,1.33
2023-06-03T05:10:28.344Z,0.90
2023-06-03T05:12:58.871Z,0.77
2023-06-03T05:15:28.600Z,0.90
2023-06-03T05:18:00.855Z,1.10
2023-06-03T05:20:29.876Z,0.90
2023-06-03T05:22:58.711Z,1.10
2023-06-03T05:25:27.647Z,0.98
2023-06-03T05:28:03.822Z,0.80
2023-06-03T05:30:37.288Z,1.30
2023-06-03T05:33:08.361Z,1.30
2023-06-03T05:35:41.871Z,0.90
2023-06-03T05:38:10.266Z,2.20
2023-06-03T05:40:38.961Z,1.40
2023-06-03T05:43:07.078Z,0.80
2023-06-03T05:45:35.228Z,0.90
2023-06-03T05:48:05.003Z,0.90
2023-06-03T05:50:38.189Z,1.08
2023-06-03T05:53:08.048Z,1.10
2023-06-03T05:55:36.218Z,0.80
2023-06-03T05:58:04.274Z,0.70
2023-06-03T06:00:33.251Z,0.73
2023-06-03T06:03:01.566Z,0.70
2023-06-03T06:05:30.530Z,0.60
2023-06-03T06:08:00.513Z,1.42
2023-06-03T06:10:28.867Z,0.70
2023-06-03T06:12:57.036Z,0.70
2023-06-03T06:15:26.406Z,0.90
2023-06-03T06:17:54.821Z,0.87
2023-06-03T06:20:23.832Z,0.77
2023-06-03T06:22:52.990Z,0.70
2023-06-03T06:25:23.375Z,0.98
2023-06-03T06:27:53.250Z,0.95
2023-06-03T06:30:22.347Z,0.77
2023-06-03T06:32:51.833Z,0.93
2023-06-03T06:35:29.832Z,0.75
2023-06-03T06:38:00.131Z,0.90
2023-06-03T06:40:36.829Z,0.70
2023-06-03T06:43:10.102Z,0.63
2023-06-03T06:45:52.966Z,1.00
2023-06-03T06:48:21.978Z,0.88
2023-06-03T06:50:55.922Z,0.70
2023-06-03T06:53:36.864Z,0.80
2023-06-03T06:56:13.737Z,1.00
2023-06-03T06:58:49.506Z,0.90
2023-06-03T07:01:17.661Z,0.80
2023-06-03T07:03:49.992Z,0.70
2023-06-03T07:06:19.348Z,0.80
2023-06-03T07:08:50.790Z,0.98
2023-06-03T07:11:22.673Z,0.93
2023-06-03T07:14:01.094Z,0.60
2023-06-03T07:16:30.411Z,1.60
2023-06-03T07:18:58.705Z,0.80
2023-06-03T07:21:41.444Z,0.90
2023-06-03T07:24:12.911Z,1.00
2023-06-03T07:26:46.518Z,1.05
2023-06-03T07:29:16.202Z,0.75
2023-06-03T07:31:44.965Z,0.87
2023-06-03T07:34:18.566Z,0.80
2023-06-03T07:36:46.829Z,0.60
2023-06-03T07:39:20.044Z,1.05
2023-06-03T07:41:55.347Z,1.20
2023-06-03T07:44:46.520Z,0.80
2023-06-03T07:47:15.798Z,0.60
2023-06-03T07:49:46.626Z,0.70
2023-06-03T07:52:19.197Z,0.90
2023-06-03T07:54:47.370Z,0.80
2023-06-03T07:57:17.210Z,0.60
2023-06-03T07:59:53.302Z,0.85
2023-06-03T08:02:21.525Z,0.73
2023-06-03T08:04:50.800Z,0.90
2023-06-03T08:07:20.516Z,0.47
2023-06-03T08:09:49.545Z,0.80
2023-06-03T08:12:27.817Z,0.60
2023-06-03T08:14:56.290Z,0.60
2023-06-03T08:17:40.199Z,0.50
2023-06-03T08:20:11.243Z,0.95
2023-06-03T08:22:43.538Z,0.60
2023-06-03T08:25:12.175Z,0.65
2023-06-03T08:27:41.611Z,0.63
2023-06-03T08:30:11.114Z,1.08
2023-06-03T08:32:41.666Z,0.95
2023-06-03T08:35:12.380Z,0.60
2023-06-03T08:37:42.206Z,0.73
2023-06-03T08:40:12.059Z,0.50
2023-06-03T08:45:14.646Z,1.00
2023-06-03T08:48:08.088Z,0.70
2023-06-03T08:50:37.332Z,0.50
2023-06-03T08:53:10.527Z,0.50
2023-06-03T08:55:39.785Z,0.50
2023-06-03T08:58:14.852Z,0.50
2023-06-03T09:00:45.938Z,0.70
2023-06-03T09:03:15.083Z,0.90
2023-06-03T09:05:44.327Z,0.70
2023-06-03T09:08:14.383Z,0.50
2023-06-03T09:10:43.290Z,0.57
2023-06-03T09:13:15.071Z,0.68
2023-06-03T09:15:44.585Z,0.40
2023-06-03T09:18:16.185Z,0.60
2023-06-03T09:20:44.274Z,0.68
2023-06-03T09:23:14.766Z,0.57
2023-06-03T09:25:43.250Z,2.00
2023-06-03T09:28:12.998Z,0.40
2023-06-03T09:33:12.500Z,0.55
2023-06-03T09:35:40.764Z,0.43
2023-06-03T09:38:08.707Z,0.80
2023-06-03T09:40:37.565Z,0.50
2023-06-03T09:43:13.439Z,0.57
2023-06-03T09:45:43.060Z,0.43
2023-06-03T09:48:11.328Z,0.52
2023-06-03T09:50:51.589Z,0.50
2023-06-03T09:55:47.922Z,0.50
2023-06-03T09:58:24.198Z,0.60
2023-06-03T10:00:56.255Z,0.57
2023-06-03T10:03:26.976Z,0.70
2023-06-03T10:05:55.081Z,0.50
2023-06-03T10:08:30.544Z,0.40
2023-06-03T10:10:59.585Z,0.50
2023-06-03T10:13:29.207Z,0.98
2023-06-03T10:15:59.672Z,0.60
2023-06-03T10:18:39.230Z,0.47
2023-06-03T10:21:09.827Z,0.70
2023-06-03T10:23:40.225Z,0.40
2023-06-03T10:26:09.570Z,0.40
2023-06-03T10:28:39.752Z,0.70
2023-06-03T10:31:10.046Z,0.73
2023-06-03T10:33:40.410Z,0.57
2023-06-03T10:36:10.446Z,0.60
2023-06-03T10:38:42.010Z,0.70
2023-06-03T10:41:11.121Z,0.52
2023-06-03T10:43:44.605Z,0.63
2023-06-03T10:46:13.845Z,0.95
2023-06-03T10:48:46.991Z,0.60
2023-06-03T10:51:33.612Z,0.50
2023-06-03T10:54:19.446Z,0.50
2023-06-03T10:56:54.793Z,0.50
2023-06-03T10:59:25.882Z,0.70
2023-06-03T11:02:03.124Z,0.40
2023-06-03T11:04:33.251Z,0.50
2023-06-03T11:07:03.766Z,0.60
2023-06-03T11:09:34.514Z,0.60
2023-06-03T11:12:10.199Z,0.52
2023-06-03T11:14:59.637Z,0.50
2023-06-03T11:17:28.417Z,0.50
2023-06-03T11:20:01.360Z,0.70
2023-06-03T11:22:50.550Z,0.50
2023-06-03T11:25:29.991Z,0.40
2023-06-03T11:28:36.024Z,0.80
2023-06-03T11:31:09.030Z,0.60
2023-06-03T11:33:37.544Z,0.38
2023-06-03T11:36:56.842Z,0.68
2023-06-03T11:39:25.855Z,0.80
2023-06-03T11:42:10.071Z,0.50
2023-06-03T11:44:40.632Z,0.68
2023-06-03T11:47:11.248Z,0.60
2023-06-03T11:49:41.387Z,0.80
2023-06-03T11:52:10.847Z,0.70
2023-06-03T11:54:40.312Z,0.50
2023-06-03T11:57:09.520Z,0.50
2023-06-03T11:59:43.251Z,0.90
2023-06-03T12:02:13.043Z,0.50
2023-06-03T12:04:41.690Z,0.55
2023-06-03T12:07:16.017Z,0.55
2023-06-03T12:09:44.131Z,0.52
2023-06-03T12:12:14.891Z,0.47
2023-06-03T12:14:46.083Z,0.57
2023-06-03T12:17:17.661Z,0.40
2023-06-03T12:19:48.019Z,0.50
2023-06-03T12:22:22.802Z,0.60
2023-06-03T12:24:51.508Z,0.50
2023-06-03T12:27:22.082Z,0.68
2023-06-03T12:29:52.459Z,0.50
2023-06-03T12:32:22.741Z,0.43
2023-06-03T12:34:51.533Z,0.40
2023-06-03T12:37:29.553Z,0.68
2023-06-03T12:40:00.197Z,0.52
2023-06-03T12:42:39.563Z,0.50
2023-06-03T12:45:09.077Z,0.80
2023-06-03T12:47:48.016Z,0.70
2023-06-03T12:50:17.803Z,0.70
2023-06-03T12:52:45.866Z,0.50
2023-06-03T12:55:17.043Z,0.60
2023-06-03T12:57:46.359Z,0.55
2023-06-03T13:00:17.845Z,0.55
2023-06-03T13:02:49.141Z,0.60
2023-06-03T13:05:19.382Z,0.40
2023-06-03T13:07:47.571Z,0.60
2023-06-03T13:10:17.199Z,0.60
2023-06-03T13:12:48.804Z,0.60
2023-06-03T13:15:17.797Z,0.70
2023-06-03T13:17:47.237Z,0.50
2023-06-03T13:20:17.671Z,0.60
2023-06-03T13:22:45.821Z,0.70
2023-06-03T13:25:13.915Z,0.60
2023-06-03T13:27:43.303Z,0.60
2023-06-03T13:30:13.043Z,0.50
2023-06-03T13:32:42.500Z,0.60
2023-06-03T13:35:12.200Z,0.45
2023-06-03T13:37:41.933Z,0.50
2023-06-03T13:40:11.371Z,0.57
2023-06-03T13:42:39.386Z,0.50
2023-06-03T13:45:08.722Z,0.70
2023-06-03T13:47:37.763Z,0.50
2023-06-03T13:50:06.799Z,0.73
2023-06-03T13:52:36.553Z,0.60
2023-06-03T13:55:05.393Z,0.57
2023-06-03T13:57:33.420Z,0.60
2023-06-03T14:00:01.405Z,0.60
2023-06-03T14:02:33.394Z,0.57
2023-06-03T14:05:01.567Z,0.60
2023-06-03T14:07:30.811Z,0.80
2023-06-03T14:10:01.712Z,0.50
2023-06-03T14:12:29.778Z,0.60
2023-06-03T14:14:57.725Z,0.63
2023-06-03T14:19:55.886Z,0.68
2023-06-03T14:22:25.535Z,0.60
2023-06-03T14:24:54.954Z,0.45
2023-06-03T14:27:24.276Z,0.60
2023-06-03T14:29:52.707Z,0.60
2023-06-03T14:32:21.380Z,0.93
2023-06-03T14:34:49.476Z,0.50
2023-06-03T14:37:18.034Z,0.68
2023-06-03T14:39:47.760Z,0.73
2023-06-03T14:42:16.260Z,0.60
2023-06-03T14:45:00.170Z,0.70
2023-06-03T14:47:30.386Z,0.65
2023-06-03T14:49:58.724Z,0.70
2023-06-03T14:52:27.881Z,0.70
2023-06-03T14:54:56.870Z,0.82
2023-06-03T14:57:24.968Z,0.63
2023-06-03T14:59:54.524Z,0.68
2023-06-03T15:02:22.708Z,0.70
2023-06-03T15:04:50.809Z,0.63
2023-06-03T15:07:19.337Z,0.70
2023-06-03T15:09:47.752Z,0.70
2023-06-03T15:12:17.164Z,0.60
2023-06-03T15:14:47.283Z,0.77
2023-06-03T15:17:16.946Z,0.80
2023-06-03T15:19:45.133Z,0.68
2023-06-03T15:22:13.129Z,0.88
2023-06-03T15:24:41.337Z,0.70
2023-06-03T15:27:09.649Z,1.40
2023-06-03T15:29:38.201Z,0.80
2023-06-03T15:32:06.986Z,0.88
2023-06-03T15:34:36.885Z,0.80
2023-06-03T15:37:05.323Z,0.90
2023-06-03T15:39:33.423Z,0.70
2023-06-03T15:42:02.620Z,0.80
2023-06-03T15:44:31.894Z,0.80
2023-06-03T15:46:59.912Z,0.60
2023-06-03T15:49:29.864Z,0.80
2023-06-03T15:51:59.233Z,1.20
2023-06-03T15:54:28.148Z,0.90
2023-06-03T15:56:56.110Z,0.80
2023-06-03T15:59:24.670Z,0.80
2023-06-03T16:01:52.899Z,1.02
2023-06-03T16:04:20.964Z,0.80
2023-06-03T16:06:48.957Z,0.90
2023-06-03T16:09:18.504Z,0.63
2023-06-03T16:11:46.677Z,1.10
2023-06-03T16:14:14.648Z,1.00
2023-06-03T16:16:42.668Z,0.98
2023-06-03T16:19:10.731Z,0.75
2023-06-03T16:21:38.838Z,0.60
2023-06-03T16:24:08.134Z,0.75
2023-06-03T16:26:43.574Z,0.75
2023-06-03T16:29:11.865Z,0.80
2023-06-03T16:31:39.887Z,0.80
2023-06-03T16:34:10.469Z,0.70
2023-06-03T16:36:39.296Z,0.95
2023-06-03T16:39:07.374Z,1.02
2023-06-03T16:41:37.435Z,1.00
2023-06-03T16:44:05.851Z,0.80
2023-06-03T16:46:34.054Z,1.00
2023-06-03T16:49:03.881Z,1.20
2023-06-03T16:51:32.693Z,0.80
2023-06-03T16:54:00.599Z,0.90
2023-06-03T16:56:29.141Z,0.95
2023-06-03T16:58:58.539Z,0.70
2023-06-03T17:01:27.243Z,0.95
2023-06-03T17:03:57.633Z,1.00
2023-06-03T17:06:25.715Z,0.80
2023-06-03T17:08:54.718Z,1.00
2023-06-03T17:11:22.845Z,1.10
2023-06-03T17:13:51.269Z,1.10
2023-06-03T17:16:21.742Z,1.05
2023-06-03T17:18:51.279Z,1.20
2023-06-03T17:21:20.962Z,1.67
2023-06-03T17:23:50.253Z,0.85
2023-06-03T17:26:18.575Z,3.58
2023-06-03T17:28:47.203Z,1.48
2023-06-03T17:31:15.891Z,0.88
2023-06-03T17:33:47.446Z,0.88
2023-06-03T17:36:16.367Z,0.93
2023-06-03T17:38:45.019Z,0.90
2023-06-03T17:41:14.509Z,0.95
2023-06-03T17:43:44.462Z,0.80
2023-06-03T17:46:13.009Z,0.82
2023-06-03T17:48:41.699Z,0.90
2023-06-03T17:51:11.516Z,1.08
2023-06-03T17:53:39.883Z,0.85
2023-06-03T17:56:08.552Z,1.00
2023-06-03T17:58:37.548Z,0.75
2023-06-03T18:01:05.835Z,0.90
2023-06-03T18:03:33.901Z,0.70
2023-06-03T18:06:02.309Z,0.70
2023-06-03T18:08:31.782Z,0.70
2023-06-03T18:13:28.552Z,1.40
2023-06-03T18:15:56.620Z,0.77
2023-06-03T18:18:25.586Z,0.80
2023-06-03T18:20:53.587Z,0.90
2023-06-03T18:23:23.579Z,0.90
2023-06-03T18:25:53.603Z,0.65
2023-06-03T18:28:21.566Z,0.90
2023-06-03T18:30:49.733Z,0.95
2023-06-03T18:33:19.476Z,1.00
2023-06-03T18:35:47.444Z,0.80
2023-06-03T18:38:15.961Z,0.80
2023-06-03T18:40:43.955Z,0.70
2023-06-03T18:43:13.357Z,0.85
2023-06-03T18:45:42.546Z,0.70
2023-06-03T18:48:11.500Z,0.63
2023-06-03T18:50:39.776Z,0.90
2023-06-03T18:53:08.416Z,0.70
2023-06-03T18:55:36.369Z,0.80
2023-06-03T18:58:05.481Z,1.00
2023-06-03T19:00:37.067Z,1.02
2023-06-03T19:03:11.054Z,1.10
2023-06-03T19:05:46.690Z,0.85
2023-06-03T19:08:20.361Z,0.80
2023-06-03T19:10:49.718Z,0.77
2023-06-03T19:13:18.027Z,0.75
2023-06-03T19:15:48.057Z,0.80
2023-06-03T19:18:16.481Z,0.75
2023-06-03T19:20:46.413Z,0.80
2023-06-03T19:23:14.774Z,0.77
2023-06-03T19:25:43.813Z,0.80
2023-06-03T19:28:12.384Z,0.82
2023-06-03T19:30:40.733Z,0.90
2023-06-03T19:33:10.173Z,0.93
2023-06-03T19:35:38.829Z,0.88
2023-06-03T19:38:07.513Z,0.75
2023-06-03T19:40:35.901Z,1.30
2023-06-03T19:43:04.355Z,1.10
2023-06-03T19:45:32.551Z,0.98
2023-06-03T19:48:01.853Z,1.20
2023-06-03T19:50:34.377Z,1.10
2023-06-03T19:53:02.345Z,1.23
2023-06-03T19:55:30.280Z,1.00
2023-06-03T19:57:58.842Z,0.95
2023-06-03T20:00:26.870Z,1.33
2023-06-03T20:02:55.621Z,1.10
2023-06-03T20:05:24.089Z,1.13
2023-06-03T20:07:53.435Z,1.20
2023-06-03T20:10:21.928Z,1.42
2023-06-03T20:12:50.380Z,1.10
2023-06-03T20:15:18.521Z,1.05
2023-06-03T20:17:48.075Z,1.17
2023-06-03T20:20:19.232Z,1.20
2023-06-03T20:22:47.228Z,1.20
2023-06-03T20:25:17.091Z,1.40
2023-06-03T20:27:46.517Z,1.10
2023-06-03T20:30:16.133Z,1.10
2023-06-03T20:32:44.383Z,1.08
2023-06-03T20:35:12.431Z,0.98
2023-06-03T20:37:40.387Z,1.15
2023-06-03T20:40:10.534Z,1.83
2023-06-03T20:42:39.980Z,1.70
2023-06-03T20:45:09.972Z,1.60
2023-06-03T20:47:37.966Z,1.33
2023-06-03T20:50:07.287Z,1.30
2023-06-03T20:52:35.856Z,1.10
2023-06-03T20:55:03.916Z,0.95
2023-06-03T20:57:31.889Z,1.10
2023-06-03T21:00:02.440Z,1.00
2023-06-03T21:02:30.403Z,1.30
2023-06-03T21:04:58.367Z,1.05
2023-06-03T21:07:26.830Z,1.30
2023-06-03T21:09:54.787Z,1.08
2023-06-03T21:12:23.363Z,1.13
2023-06-03T21:14:52.858Z,1.00
2023-06-03T21:17:22.369Z,1.30
2023-06-03T21:19:50.561Z,1.10
2023-06-03T21:22:18.983Z,1.20
2023-06-03T21:24:49.019Z,1.20
2023-06-03T21:27:17.301Z,1.00
2023-06-03T21:29:46.345Z,1.10
2023-06-03T21:32:14.432Z,0.88
2023-06-03T21:34:43.999Z,1.15
2023-06-03T21:37:11.995Z,1.20
2023-06-03T21:39:40.580Z,1.15
2023-06-03T21:42:09.584Z,1.23
2023-06-03T21:44:37.899Z,1.47
2023-06-03T21:47:06.327Z,1.40
2023-06-03T21:49:35.333Z,1.00
2023-06-03T21:52:04.711Z,1.20
2023-06-03T21:54:33.172Z,1.25
2023-06-03T21:57:01.620Z,1.30
2023-06-03T21:59:31.155Z,1.27
2023-06-03T22:01:59.557Z,1.20
2023-06-03T22:04:28.379Z,1.40
2023-06-03T22:06:56.521Z,1.80
2023-06-03T22:09:25.882Z,1.50
2023-06-03T22:11:54.508Z,1.23
2023-06-03T22:14:22.458Z,0.95
2023-06-03T22:16:50.891Z,1.02
2023-06-03T22:19:19.485Z,1.33
2023-06-03T22:21:47.918Z,1.10
2023-06-03T22:24:15.927Z,1.40
2023-06-03T22:26:46.261Z,1.20
2023-06-03T22:29:14.234Z,1.10
2023-06-03T22:31:42.675Z,1.50
2023-06-03T22:34:11.701Z,1.20
2023-06-03T22:36:39.707Z,1.00
2023-06-03T22:39:09.274Z,1.10
2023-06-03T22:41:37.760Z,1.30
2023-06-03T22:44:07.578Z,1.30
2023-06-03T22:46:36.521Z,1.40
2023-06-03T22:49:04.570Z,1.10
2023-06-03T22:51:33.069Z,1.30
2023-06-03T22:54:01.328Z,1.13
2023-06-03T22:56:29.408Z,1.50
2023-06-03T22:58:58.680Z,1.50
2023-06-03T23:01:28.030Z,1.27
2023-06-03T23:03:56.558Z,1.20
2023-06-03T23:06:24.566Z,1.40
2023-06-03T23:08:52.557Z,1.45
2023-06-03T23:11:20.526Z,1.20
2023-06-03T23:13:49.356Z,1.27
2023-06-03T23:16:17.355Z,1.10
2023-06-03T23:18:47.328Z,1.15
2023-06-03T23:21:16.252Z,1.27
2023-06-03T23:23:44.263Z,1.48
2023-06-03T23:26:12.787Z,1.30
2023-06-03T23:28:41.350Z,1.70
2023-06-03T23:31:09.758Z,1.20
2023-06-03T23:33:38.143Z,1.55
2023-06-03T23:36:08.608Z,1.30
2023-06-03T23:38:36.703Z,1.42
2023-06-03T23:41:05.488Z,1.40
2023-06-03T23:43:33.644Z,1.35
2023-06-03T23:46:01.707Z,1.50
2023-06-03T23:48:30.683Z,1.40
2023-06-03T23:50:58.639Z,1.42
2023-06-03T23:53:28.464Z,1.67
2023-06-03T23:55:56.866Z,1.60
2023-06-03T23:58:24.886Z,1.80
